createdAt,value
2024-05-09T00:00:41.226Z,8.60
2024-05-09T00:03:10.745Z,8.50
2024-05-09T00:05:41.144Z,8.50
2024-05-09T00:08:09.512Z,8.50
2024-05-09T00:10:39.205Z,8.40
2024-05-09T00:13:08.182Z,8.40
2024-05-09T00:15:36.151Z,8.30
2024-05-09T00:18:05.229Z,8.40
2024-05-09T00:20:38.280Z,8.30
2024-05-09T00:23:12.520Z,8.40
2024-05-09T00:25:44.285Z,8.30
2024-05-09T00:28:12.693Z,8.30
2024-05-09T00:30:40.072Z,8.20
2024-05-09T00:33:08.970Z,8.20
2024-05-09T00:35:37.759Z,8.20
2024-05-09T00:38:05.250Z,8.10
2024-05-09T00:40:41.913Z,8.00
2024-05-09T00:43:12.561Z,8.00
2024-05-09T00:45:40.995Z,8.00
2024-05-09T00:48:10.150Z,8.00
2024-05-09T00:50:41.666Z,8.00
2024-05-09T00:53:14.190Z,8.00
2024-05-09T00:55:41.946Z,8.10
2024-05-09T00:58:12.021Z,8.00
2024-05-09T01:00:41.276Z,8.10
2024-05-09T01:03:12.024Z,8.00
2024-05-09T01:05:42.151Z,8.00
2024-05-09T01:08:10.704Z,7.90
2024-05-09T01:10:38.377Z,7.80
2024-05-09T01:13:06.838Z,7.80
2024-05-09T01:15:35.683Z,8.00
2024-05-09T01:18:12.612Z,7.90
2024-05-09T01:20:43.704Z,7.80
2024-05-09T01:23:15.164Z,7.90
2024-05-09T01:25:44.577Z,7.70
2024-05-09T01:28:12.059Z,7.60
2024-05-09T01:30:39.248Z,7.60
2024-05-09T01:33:08.871Z,7.60
2024-05-09T01:35:38.936Z,7.40
2024-05-09T01:38:06.983Z,7.40
2024-05-09T01:40:38.551Z,7.50
2024-05-09T01:43:08.839Z,7.50
2024-05-09T01:45:36.859Z,7.50
2024-05-09T01:48:04.760Z,7.50
2024-05-09T01:50:38.471Z,7.50
2024-05-09T01:53:14.500Z,7.50
2024-05-09T01:55:43.160Z,7.50
2024-05-09T01:58:10.549Z,7.50
2024-05-09T02:00:41.343Z,7.50
2024-05-09T02:03:14.380Z,7.50
2024-05-09T02:05:45.000Z,7.40
2024-05-09T02:08:18.101Z,7.40
2024-05-09T02:10:47.264Z,7.30
2024-05-09T02:13:15.176Z,7.30
2024-05-09T02:15:42.571Z,7.20
2024-05-09T02:18:10.423Z,7.20
2024-05-09T02:20:39.800Z,7.30
2024-05-09T02:23:08.510Z,7.20
2024-05-09T02:25:35.723Z,7.20
2024-05-09T02:28:02.901Z,7.10
2024-05-09T02:30:38.663Z,7.00
2024-05-09T02:33:10.377Z,7.10
2024-05-09T02:35:39.466Z,7.10
2024-05-09T02:38:06.627Z,7.10
2024-05-09T02:40:37.705Z,7.10
2024-05-09T02:43:08.274Z,7.00
2024-05-09T02:45:36.402Z,7.20
2024-05-09T02:48:04.140Z,7.10
2024-05-09T02:50:37.847Z,7.10
2024-05-09T02:53:14.175Z,7.10
2024-05-09T02:55:42.450Z,7.20
2024-05-09T02:58:10.508Z,7.20
2024-05-09T03:00:41.147Z,7.10
2024-05-09T03:03:13.137Z,7.00
2024-05-09T03:05:45.720Z,7.00
2024-05-09T03:08:13.244Z,7.10
2024-05-09T03:10:40.490Z,6.90
2024-05-09T03:13:09.193Z,6.80
2024-05-09T03:15:36.597Z,6.90
2024-05-09T03:18:05.400Z,6.90
2024-05-09T03:20:35.150Z,7.00
2024-05-09T03:23:04.543Z,6.90
2024-05-09T03:25:31.863Z,6.80
2024-05-09T03:27:59.432Z,6.80
2024-05-09T03:30:38.639Z,6.70
2024-05-09T03:33:15.575Z,6.70
2024-05-09T03:35:44.188Z,6.70
2024-05-09T03:38:11.323Z,6.70
2024-05-09T03:40:45.510Z,6.70
2024-05-09T03:43:13.353Z,6.70
2024-05-09T03:45:40.340Z,6.80
2024-05-09T03:48:08.491Z,6.80
2024-05-09T03:50:36.852Z,6.70
2024-05-09T03:53:05.019Z,6.80
2024-05-09T03:55:32.363Z,6.90
2024-05-09T03:57:59.774Z,6.70
2024-05-09T04:00:35.178Z,6.60
2024-05-09T04:03:08.952Z,6.70
2024-05-09T04:05:40.686Z,6.60
2024-05-09T04:08:09.111Z,6.60
2024-05-09T04:10:36.201Z,6.60
2024-05-09T04:13:04.098Z,6.60
2024-05-09T04:15:32.242Z,6.60
2024-05-09T04:18:00.017Z,6.60
2024-05-09T04:20:36.849Z,6.60
2024-05-09T04:23:08.902Z,6.70
2024-05-09T04:25:37.766Z,6.70
2024-05-09T04:28:05.534Z,6.70
2024-05-09T04:30:38.623Z,6.80
2024-05-09T04:33:11.410Z,6.90
2024-05-09T04:35:42.630Z,6.90
2024-05-09T04:38:10.298Z,7.00
2024-05-09T04:40:37.944Z,7.00
2024-05-09T04:43:06.991Z,7.20
2024-05-09T04:45:34.945Z,7.20
2024-05-09T04:48:02.620Z,7.20
2024-05-09T04:50:36.624Z,7.20
2024-05-09T04:53:07.776Z,7.30
2024-05-09T04:55:36.564Z,7.40
2024-05-09T04:58:03.724Z,7.40
2024-05-09T05:00:36.408Z,7.40
2024-05-09T05:03:09.310Z,7.50
2024-05-09T05:05:40.447Z,7.60
2024-05-09T05:08:12.377Z,7.70
2024-05-09T05:10:40.016Z,7.70
2024-05-09T05:13:17.222Z,7.90
2024-05-09T05:15:52.141Z,8.00
2024-05-09T05:18:19.782Z,8.20
2024-05-09T05:20:47.983Z,8.40
2024-05-09T05:23:19.603Z,8.60
2024-05-09T05:25:48.512Z,8.70
2024-05-09T05:28:19.210Z,8.80
2024-05-09T05:30:46.594Z,9.10
2024-05-09T05:33:15.297Z,9.30
2024-05-09T05:35:43.276Z,9.40
2024-05-09T05:38:11.242Z,9.70
2024-05-09T05:40:39.780Z,9.90
2024-05-09T05:43:09.251Z,10.10
2024-05-09T05:45:36.708Z,10.30
2024-05-09T05:48:06.075Z,10.60
2024-05-09T05:50:36.806Z,10.70
2024-05-09T05:53:09.846Z,10.90
2024-05-09T05:55:41.059Z,11.10
2024-05-09T05:58:12.122Z,11.30
2024-05-09T06:00:42.107Z,11.60
2024-05-09T06:03:11.669Z,11.50
2024-05-09T06:05:47.798Z,11.60
2024-05-09T06:08:15.006Z,11.80
2024-05-09T06:10:42.559Z,11.90
2024-05-09T06:13:14.149Z,11.80
2024-05-09T06:15:41.902Z,11.90
2024-05-09T06:18:11.143Z,12.00
2024-05-09T06:20:42.372Z,12.20
2024-05-09T06:23:10.744Z,12.30
2024-05-09T06:25:38.526Z,12.30
2024-05-09T06:28:06.073Z,12.50
2024-05-09T06:33:06.670Z,12.70
2024-05-09T06:35:34.226Z,12.80
2024-05-09T06:38:01.703Z,12.80
2024-05-09T06:40:36.860Z,13.10
2024-05-09T06:43:18.010Z,13.20
2024-05-09T06:45:52.839Z,13.40
2024-05-09T06:48:21.473Z,13.50
2024-05-09T06:50:49.458Z,13.40
2024-05-09T06:53:17.958Z,13.40
2024-05-09T06:55:45.159Z,13.90
2024-05-09T06:58:12.306Z,13.80
2024-05-09T07:00:41.362Z,13.80
2024-05-09T07:03:11.543Z,13.90
2024-05-09T07:05:40.256Z,14.00
2024-05-09T07:08:08.179Z,14.20
2024-05-09T07:10:36.521Z,14.30
2024-05-09T07:13:11.615Z,14.60
2024-05-09T07:15:39.699Z,14.60
2024-05-09T07:18:18.591Z,14.80
2024-05-09T07:20:47.754Z,14.90
2024-05-09T07:23:16.102Z,15.00
2024-05-09T07:25:43.657Z,15.10
2024-05-09T07:28:19.188Z,15.40
2024-05-09T07:30:46.756Z,15.40
2024-05-09T07:33:18.077Z,15.30
2024-05-09T07:35:45.781Z,15.10
2024-05-09T07:38:13.284Z,15.20
2024-05-09T07:40:41.700Z,15.60
2024-05-09T07:43:11.825Z,15.70
2024-05-09T07:45:48.759Z,15.90
2024-05-09T07:52:38.748Z,16.00
2024-05-09T07:53:49.972Z,16.10
2024-05-09T07:56:21.978Z,16.00
2024-05-09T07:58:52.031Z,16.20
2024-05-09T08:01:20.054Z,16.60
2024-05-09T08:03:49.160Z,17.00
2024-05-09T08:06:16.484Z,17.00
2024-05-09T08:08:43.542Z,17.30
2024-05-09T08:11:10.623Z,17.40
2024-05-09T08:13:37.664Z,17.60
2024-05-09T08:16:05.254Z,17.60
2024-05-09T08:18:32.681Z,17.60
2024-05-09T08:21:00.102Z,17.50
2024-05-09T08:23:28.589Z,17.60
2024-05-09T08:25:55.643Z,17.70
2024-05-09T08:28:22.811Z,17.60
2024-05-09T08:30:50.083Z,17.70
2024-05-09T08:33:17.287Z,17.80
2024-05-09T08:35:44.432Z,18.20
2024-05-09T08:38:11.595Z,18.40
2024-05-09T08:40:39.012Z,18.70
2024-05-09T08:43:11.827Z,19.40
2024-05-09T08:45:44.206Z,19.60
2024-05-09T08:48:14.779Z,20.70
2024-05-09T08:50:44.761Z,21.80
2024-05-09T08:53:14.497Z,22.20
2024-05-09T08:55:43.471Z,22.30
2024-05-09T08:58:20.663Z,22.30
2024-05-09T09:00:49.338Z,22.20
2024-05-09T09:03:24.997Z,22.20
2024-05-09T09:05:59.013Z,21.50
2024-05-09T09:08:26.489Z,21.70
2024-05-09T09:10:57.618Z,21.50
2024-05-09T09:13:25.554Z,22.20
2024-05-09T09:15:57.544Z,22.60
2024-05-09T09:18:26.622Z,22.60
2024-05-09T09:20:54.754Z,22.00
2024-05-09T09:23:22.167Z,22.70
2024-05-09T09:25:49.727Z,23.00
2024-05-09T09:28:16.849Z,23.50
2024-05-09T09:30:44.212Z,23.70
2024-05-09T09:33:12.264Z,22.90
2024-05-09T09:35:40.490Z,23.20
2024-05-09T09:38:10.068Z,23.50
2024-05-09T09:40:45.778Z,23.90
2024-05-09T09:43:21.392Z,24.50
2024-05-09T09:45:51.246Z,24.00
2024-05-09T09:48:19.824Z,25.50
2024-05-09T09:50:47.359Z,25.00
2024-05-09T09:53:14.434Z,25.70
2024-05-09T09:55:41.773Z,25.20
2024-05-09T09:58:12.128Z,26.20
2024-05-09T10:00:41.823Z,25.40
2024-05-09T10:03:09.233Z,25.70
2024-05-09T10:05:36.842Z,25.70
2024-05-09T10:08:06.609Z,25.30
2024-05-09T10:10:34.617Z,25.10
2024-05-09T10:13:05.426Z,24.70
2024-05-09T10:16:09.265Z,25.60
2024-05-09T10:18:39.966Z,25.30
2024-05-09T10:21:19.750Z,25.40
2024-05-09T10:24:02.916Z,25.50
2024-05-09T10:26:36.655Z,23.60
2024-05-09T10:29:12.761Z,25.40
2024-05-09T10:31:44.071Z,25.30
2024-05-09T10:34:24.009Z,24.80
2024-05-09T10:36:52.305Z,24.10
2024-05-09T10:39:20.265Z,23.10
2024-05-09T10:41:49.048Z,22.90
2024-05-09T10:44:16.364Z,24.10
2024-05-09T10:46:44.234Z,24.90
2024-05-09T10:49:13.499Z,25.40
2024-05-09T10:51:41.750Z,25.90
2024-05-09T10:54:08.694Z,25.70
2024-05-09T10:56:35.626Z,25.10
2024-05-09T10:59:05.803Z,23.40
2024-05-09T11:01:33.012Z,24.00
2024-05-09T11:04:00.238Z,25.60
2024-05-09T11:06:27.592Z,26.20
2024-05-09T11:08:56.077Z,26.40
2024-05-09T11:11:23.110Z,26.70
2024-05-09T11:13:50.105Z,27.30
2024-05-09T11:16:21.337Z,27.90
2024-05-09T11:18:56.294Z,28.00
2024-05-09T11:21:24.475Z,28.60
2024-05-09T11:23:52.146Z,27.10
2024-05-09T11:26:21.585Z,26.60
2024-05-09T11:28:50.484Z,25.30
2024-05-09T11:31:18.060Z,25.20
2024-05-09T11:33:45.837Z,26.30
2024-05-09T11:36:13.461Z,27.70
2024-05-09T11:38:41.074Z,27.60
2024-05-09T11:41:08.243Z,27.50
2024-05-09T11:43:35.432Z,27.60
2024-05-09T11:46:03.833Z,27.60
2024-05-09T11:48:31.676Z,27.80
2024-05-09T11:50:59.084Z,28.20
2024-05-09T11:53:26.293Z,28.40
2024-05-09T11:55:53.480Z,30.10
2024-05-09T11:58:22.873Z,29.80
2024-05-09T12:00:50.350Z,29.10
2024-05-09T12:03:17.592Z,26.10
2024-05-09T12:05:45.061Z,26.20
2024-05-09T12:08:12.489Z,28.20
2024-05-09T12:10:39.879Z,27.90
2024-05-09T12:13:07.938Z,28.60
2024-05-09T12:15:39.026Z,28.90
2024-05-09T12:18:08.020Z,29.00
2024-05-09T12:20:38.735Z,30.30
2024-05-09T12:23:09.663Z,30.10
2024-05-09T12:25:38.611Z,30.50
2024-05-09T12:28:06.694Z,29.80
2024-05-09T12:30:38.318Z,29.10
2024-05-09T12:33:12.694Z,30.30
2024-05-09T12:35:43.456Z,29.80
2024-05-09T12:38:13.464Z,29.10
2024-05-09T12:40:40.541Z,30.70
2024-05-09T12:43:08.887Z,31.90
2024-05-09T12:45:37.483Z,32.00
2024-05-09T12:48:07.557Z,32.90
2024-05-09T12:50:35.448Z,32.80
2024-05-09T12:53:04.123Z,32.10
2024-05-09T12:55:40.618Z,32.00
2024-05-09T12:58:16.987Z,32.30
2024-05-09T13:00:45.066Z,31.80
2024-05-09T13:03:12.475Z,30.50
2024-05-09T13:05:44.812Z,32.10
2024-05-09T13:08:13.264Z,32.90
2024-05-09T13:10:40.583Z,32.90
2024-05-09T13:13:09.743Z,32.40
2024-05-09T13:15:39.673Z,32.80
2024-05-09T13:18:07.437Z,31.80
2024-05-09T13:20:36.435Z,33.60
2024-05-09T13:23:08.204Z,34.40
2024-05-09T13:25:37.690Z,34.40
2024-05-09T13:28:06.343Z,33.80
2024-05-09T13:30:39.360Z,33.20
2024-05-09T13:33:13.676Z,33.40
2024-05-09T13:35:47.047Z,33.60
2024-05-09T13:38:18.507Z,33.40
2024-05-09T13:40:45.917Z,33.50
2024-05-09T13:43:13.587Z,34.10
2024-05-09T13:45:40.821Z,34.00
2024-05-09T13:48:09.792Z,32.80
2024-05-09T13:50:37.472Z,33.40
2024-05-09T13:53:06.484Z,33.30
2024-05-09T13:55:35.472Z,35.60
2024-05-09T13:58:03.189Z,35.70
2024-05-09T14:00:42.319Z,36.50
2024-05-09T14:03:15.891Z,35.70
2024-05-09T14:05:43.576Z,35.70
2024-05-09T14:08:11.587Z,35.00
2024-05-09T14:10:44.642Z,34.60
2024-05-09T14:13:13.226Z,36.40
2024-05-09T14:15:41.086Z,36.00
2024-05-09T14:18:12.211Z,36.20
2024-05-09T14:20:41.102Z,37.40
2024-05-09T14:23:08.120Z,36.40
2024-05-09T14:25:38.962Z,34.40
2024-05-09T14:28:09.320Z,35.00
2024-05-09T14:30:38.127Z,34.90
2024-05-09T14:33:07.459Z,33.70
2024-05-09T14:35:35.824Z,33.50
2024-05-09T14:38:03.487Z,34.70
2024-05-09T14:40:40.459Z,34.90
2024-05-09T14:43:14.717Z,34.70
2024-05-09T14:45:42.464Z,33.70
2024-05-09T14:48:10.408Z,33.60
2024-05-09T14:50:39.589Z,33.80
2024-05-09T14:53:11.198Z,33.50
2024-05-09T14:55:40.649Z,34.00
2024-05-09T14:58:09.722Z,33.10
2024-05-09T15:00:39.459Z,32.30
2024-05-09T15:03:09.030Z,33.40
2024-05-09T15:05:36.048Z,33.60
2024-05-09T15:08:05.477Z,33.20
2024-05-09T15:10:35.653Z,33.20
2024-05-09T15:13:04.291Z,35.00
2024-05-09T15:15:31.861Z,34.30
2024-05-09T15:17:59.782Z,33.20
2024-05-09T15:20:33.945Z,33.40
2024-05-09T15:23:03.714Z,31.80
2024-05-09T15:25:30.991Z,30.30
2024-05-09T15:27:58.116Z,30.60
2024-05-09T15:32:55.228Z,33.00
2024-05-09T15:35:22.300Z,33.50
2024-05-09T15:37:49.332Z,33.70
2024-05-09T15:40:26.093Z,34.00
2024-05-09T15:43:02.438Z,34.10
2024-05-09T15:45:29.693Z,33.50
2024-05-09T15:47:57.820Z,33.00
2024-05-09T15:50:35.138Z,33.70
2024-05-09T15:53:06.695Z,34.20
2024-05-09T15:55:34.695Z,34.70
2024-05-09T15:58:02.258Z,33.10
2024-05-09T16:00:37.346Z,33.10
2024-05-09T16:03:08.315Z,32.40
2024-05-09T16:05:35.444Z,31.90
2024-05-09T16:08:02.569Z,31.60
2024-05-09T16:10:32.939Z,31.20
2024-05-09T16:13:02.072Z,32.10
2024-05-09T16:15:29.488Z,33.30
2024-05-09T16:17:56.626Z,31.40
2024-05-09T16:22:54.491Z,32.00
2024-05-09T16:25:21.517Z,32.30
2024-05-09T16:27:50.178Z,33.80
2024-05-09T16:30:24.763Z,32.70
2024-05-09T16:32:58.820Z,32.60
2024-05-09T16:35:25.738Z,31.20
2024-05-09T16:37:52.743Z,31.00
2024-05-09T16:40:29.299Z,31.20
2024-05-09T16:43:03.658Z,31.50
2024-05-09T16:45:30.762Z,31.40
2024-05-09T16:47:59.660Z,31.80
2024-05-09T16:50:32.400Z,32.20
2024-05-09T16:53:02.101Z,31.90
2024-05-09T16:55:29.183Z,32.10
2024-05-09T16:57:56.786Z,31.80
2024-05-09T17:00:35.163Z,31.50
2024-05-09T17:03:08.937Z,31.90
2024-05-09T17:05:36.647Z,31.40
2024-05-09T17:08:04.206Z,32.30
2024-05-09T17:10:33.884Z,32.40
2024-05-09T17:13:03.209Z,31.80
2024-05-09T17:15:31.704Z,30.70
2024-05-09T17:17:58.947Z,29.20
2024-05-09T17:20:32.441Z,28.30
2024-05-09T17:23:03.179Z,27.00
2024-05-09T17:25:30.214Z,25.60
2024-05-09T17:27:59.641Z,24.20
2024-05-09T17:30:32.518Z,23.00
2024-05-09T17:33:05.133Z,22.10
2024-05-09T17:35:32.540Z,21.90
2024-05-09T17:38:01.577Z,21.20
2024-05-09T17:40:33.663Z,21.00
2024-05-09T17:43:04.898Z,20.80
2024-05-09T17:45:32.752Z,20.50
2024-05-09T17:48:00.440Z,20.20
2024-05-09T17:50:34.976Z,20.00
2024-05-09T17:53:08.505Z,19.90
2024-05-09T17:55:36.524Z,19.70
2024-05-09T17:58:04.845Z,19.40
2024-05-09T18:00:38.248Z,19.40
2024-05-09T18:03:11.659Z,19.20
2024-05-09T18:05:39.936Z,19.20
2024-05-09T18:08:08.116Z,19.10
2024-05-09T18:10:38.755Z,19.00
2024-05-09T18:13:08.463Z,18.80
2024-05-09T18:15:36.025Z,18.60
2024-05-09T18:18:03.995Z,18.20
2024-05-09T18:20:40.925Z,18.10
2024-05-09T18:23:13.478Z,17.80
2024-05-09T18:25:41.082Z,17.70
2024-05-09T18:28:08.602Z,17.70
2024-05-09T18:30:37.204Z,17.40
2024-05-09T18:33:07.740Z,17.20
2024-05-09T18:35:36.394Z,16.90
2024-05-09T18:38:04.055Z,16.70
2024-05-09T18:40:35.144Z,16.50
2024-05-09T18:43:07.247Z,16.40
2024-05-09T18:45:39.869Z,16.20
2024-05-09T18:48:09.153Z,15.90
2024-05-09T18:50:39.626Z,15.80
2024-05-09T18:53:10.574Z,15.60
2024-05-09T18:55:38.405Z,15.50
2024-05-09T18:58:05.694Z,15.50
2024-05-09T19:00:36.591Z,15.40
2024-05-09T19:03:09.568Z,15.30
2024-05-09T19:05:39.538Z,15.10
2024-05-09T19:08:08.198Z,14.90
2024-05-09T19:10:37.264Z,14.80
2024-05-09T19:13:09.066Z,14.70
2024-05-09T19:15:40.274Z,14.70
2024-05-09T19:18:08.174Z,14.60
2024-05-09T19:20:36.727Z,14.50
2024-05-09T19:23:06.833Z,14.20
2024-05-09T19:25:34.945Z,14.10
2024-05-09T19:28:03.028Z,14.00
2024-05-09T19:30:38.094Z,14.00
2024-05-09T19:33:09.579Z,13.90
2024-05-09T19:35:37.506Z,13.80
2024-05-09T19:38:05.355Z,13.70
2024-05-09T19:40:34.138Z,13.60
2024-05-09T19:43:03.214Z,13.40
2024-05-09T19:45:32.356Z,13.30
2024-05-09T19:47:59.650Z,13.30
2024-05-09T19:50:35.680Z,13.20
2024-05-09T19:53:08.682Z,13.20
2024-05-09T19:55:35.863Z,13.20
2024-05-09T19:58:05.455Z,13.20
2024-05-09T20:00:40.080Z,13.60
2024-05-09T20:03:10.118Z,13.00
2024-05-09T20:05:38.508Z,12.90
2024-05-09T20:08:06.689Z,12.90
2024-05-09T20:10:35.709Z,12.90
2024-05-09T20:13:06.207Z,12.90
2024-05-09T20:15:35.743Z,12.90
2024-05-09T20:18:03.394Z,12.70
2024-05-09T20:20:37.522Z,12.50
2024-05-09T20:23:09.217Z,12.50
2024-05-09T20:25:36.796Z,12.40
2024-05-09T20:28:04.349Z,12.50
2024-05-09T20:30:34.191Z,12.40
2024-05-09T20:33:04.337Z,12.30
2024-05-09T20:35:33.234Z,12.30
2024-05-09T20:38:01.556Z,12.30
2024-05-09T20:40:33.894Z,12.20
2024-05-09T20:43:04.844Z,12.20
2024-05-09T20:45:32.094Z,12.20
2024-05-09T20:47:59.484Z,12.00
2024-05-09T20:50:35.941Z,12.00
2024-05-09T20:53:09.421Z,11.90
2024-05-09T20:55:37.005Z,12.00
2024-05-09T20:58:04.591Z,11.90
2024-05-09T21:00:39.780Z,11.80
2024-05-09T21:03:11.388Z,11.60
2024-05-09T21:05:39.181Z,11.60
2024-05-09T21:08:06.926Z,11.50
2024-05-09T21:10:35.887Z,11.50
2024-05-09T21:13:03.935Z,11.50
2024-05-09T21:15:31.996Z,11.40
2024-05-09T21:17:59.445Z,11.40
2024-05-09T21:22:57.636Z,11.30
2024-05-09T21:25:24.821Z,11.20
2024-05-09T21:27:52.082Z,11.20
2024-05-09T21:30:28.445Z,11.20
2024-05-09T21:33:05.687Z,11.20
2024-05-09T21:35:32.814Z,11.30
2024-05-09T21:37:59.890Z,11.30
2024-05-09T21:40:33.812Z,11.30
2024-05-09T21:43:03.501Z,11.30
2024-05-09T21:45:30.636Z,11.30
2024-05-09T21:47:57.848Z,11.20
2024-05-09T21:50:32.301Z,11.20
2024-05-09T21:53:07.000Z,11.20
2024-05-09T21:55:34.332Z,11.10
2024-05-09T21:58:01.741Z,11.00
2024-05-09T22:00:35.743Z,10.80
2024-05-09T22:03:06.713Z,11.00
2024-05-09T22:05:34.758Z,10.90
2024-05-09T22:08:02.267Z,10.80
2024-05-09T22:10:34.190Z,10.80
2024-05-09T22:13:06.906Z,10.80
2024-05-09T22:15:37.021Z,10.80
2024-05-09T22:18:05.839Z,10.60
2024-05-09T22:20:37.864Z,10.50
2024-05-09T22:23:07.677Z,10.40
2024-05-09T22:25:35.661Z,10.50
2024-05-09T22:28:03.330Z,10.60
2024-05-09T22:30:35.984Z,10.60
2024-05-09T22:33:10.753Z,10.50
2024-05-09T22:35:39.582Z,10.50
2024-05-09T22:38:06.870Z,10.50
2024-05-09T22:40:43.378Z,10.40
2024-05-09T22:43:21.090Z,10.40
2024-05-09T22:45:50.288Z,10.40
2024-05-09T22:48:18.093Z,10.30
2024-05-09T22:50:45.347Z,10.30
2024-05-09T22:53:12.337Z,10.30
2024-05-09T22:55:39.403Z,10.20
2024-05-09T22:58:06.598Z,10.10
2024-05-09T23:00:33.873Z,10.20
2024-05-09T23:03:02.271Z,10.20
2024-05-09T23:05:30.729Z,10.10
2024-05-09T23:07:58.250Z,10.10
2024-05-09T23:10:32.420Z,10.00
2024-05-09T23:13:04.120Z,9.90
2024-05-09T23:15:31.367Z,9.80
2024-05-09T23:17:58.992Z,9.90
2024-05-09T23:20:33.754Z,9.90
2024-05-09T23:23:06.437Z,9.90
2024-05-09T23:25:33.960Z,10.00
2024-05-09T23:28:01.253Z,10.00
2024-05-09T23:30:34.878Z,10.00
2024-05-09T23:33:06.408Z,9.80
2024-05-09T23:35:33.610Z,9.60
2024-05-09T23:38:00.768Z,9.50
2024-05-09T23:40:37.479Z,9.50
2024-05-09T23:43:08.588Z,9.50
2024-05-09T23:45:36.065Z,9.50
2024-05-09T23:48:03.699Z,9.50
2024-05-09T23:50:35.417Z,9.50
2024-05-09T23:53:06.193Z,9.50
2024-05-09T23:55:34.100Z,9.40
2024-05-09T23:58:01.345Z,9.40
